sensor_id;sensor_type;location;lat;lon;timestamp;pressure;altitude;pressure_sealevel;temperature;humidity
42603;BME280;28233;55.748;48.752;2023-04-21T00:01:46;99223.09;;;8.15;64.75
42603;BME280;28233;55.748;48.752;2023-04-21T00:03:49;99219.56;;;8.14;64.91
42603;BME280;28233;55.748;48.752;2023-04-21T00:05:54;99211.66;;;8.13;65.05
42603;BME280;28233;55.748;48.752;2023-04-21T00:07:57;99210.56;;;8.14;65.18
42603;BME280;28233;55.748;48.752;2023-04-21T00:10:00;99205.53;;;8.16;65.50
42603;BME280;28233;55.748;48.752;2023-04-21T00:12:06;99193.50;;;8.17;65.56
42603;BME280;28233;55.748;48.752;2023-04-21T00:14:08;99208.84;;;8.26;65.14
42603;BME280;28233;55.748;48.752;2023-04-21T00:16:11;99208.19;;;8.30;64.63
42603;BME280;28233;55.748;48.752;2023-04-21T00:18:14;99214.97;;;8.32;64.60
42603;BME280;28233;55.748;48.752;2023-04-21T00:20:17;99203.72;;;8.34;64.36
42603;BME280;28233;55.748;48.752;2023-04-21T00:22:20;99202.13;;;8.33;63.75
42603;BME280;28233;55.748;48.752;2023-04-21T00:24:24;99198.91;;;8.39;63.43
42603;BME280;28233;55.748;48.752;2023-04-21T00:26:26;99215.06;;;8.41;62.77
42603;BME280;28233;55.748;48.752;2023-04-21T00:28:29;99211.22;;;8.42;62.36
42603;BME280;28233;55.748;48.752;2023-04-21T00:30:32;99210.72;;;8.49;61.44
42603;BME280;28233;55.748;48.752;2023-04-21T00:32:34;99209.78;;;8.53;61.02
42603;BME280;28233;55.748;48.752;2023-04-21T00:34:37;99210.16;;;8.60;60.41
42603;BME280;28233;55.748;48.752;2023-04-21T00:36:40;99214.06;;;8.77;59.69
42603;BME280;28233;55.748;48.752;2023-04-21T00:38:42;99215.91;;;8.90;58.89
42603;BME280;28233;55.748;48.752;2023-04-21T00:40:45;99216.88;;;9.03;58.42
42603;BME280;28233;55.748;48.752;2023-04-21T00:42:47;99214.66;;;9.14;58.12
42603;BME280;28233;55.748;48.752;2023-04-21T00:44:50;99210.00;;;9.23;57.84
42603;BME280;28233;55.748;48.752;2023-04-21T00:46:53;99210.66;;;9.28;57.67
42603;BME280;28233;55.748;48.752;2023-04-21T00:48:57;99206.16;;;9.32;57.32
42603;BME280;28233;55.748;48.752;2023-04-21T00:51:00;99206.44;;;9.31;59.63
42603;BME280;28233;55.748;48.752;2023-04-21T00:53:03;99208.72;;;9.20;59.80
42603;BME280;28233;55.748;48.752;2023-04-21T00:55:06;99206.13;;;9.15;59.26
42603;BME280;28233;55.748;48.752;2023-04-21T00:57:10;99207.25;;;9.14;58.90
42603;BME280;28233;55.748;48.752;2023-04-21T00:59:13;99207.25;;;9.14;58.34
42603;BME280;28233;55.748;48.752;2023-04-21T01:01:15;99205.78;;;9.17;58.68
42603;BME280;28233;55.748;48.752;2023-04-21T01:03:18;99200.66;;;9.15;58.30
42603;BME280;28233;55.748;48.752;2023-04-21T01:05:22;99192.25;;;9.20;58.33
42603;BME280;28233;55.748;48.752;2023-04-21T01:07:24;99188.72;;;9.20;57.91
42603;BME280;28233;55.748;48.752;2023-04-21T01:09:28;99178.41;;;9.25;57.66
42603;BME280;28233;55.748;48.752;2023-04-21T01:11:31;99175.19;;;9.32;57.03
42603;BME280;28233;55.748;48.752;2023-04-21T01:13:34;99173.06;;;9.38;57.05
42603;BME280;28233;55.748;48.752;2023-04-21T01:15:36;99169.19;;;9.47;56.87
42603;BME280;28233;55.748;48.752;2023-04-21T01:17:39;99165.19;;;9.53;56.83
42603;BME280;28233;55.748;48.752;2023-04-21T01:19:43;99168.56;;;9.59;56.85
42603;BME280;28233;55.748;48.752;2023-04-21T01:21:47;99163.25;;;9.63;56.26
42603;BME280;28233;55.748;48.752;2023-04-21T01:23:50;99161.13;;;9.68;56.11
42603;BME280;28233;55.748;48.752;2023-04-21T01:25:53;99155.31;;;9.70;56.00
42603;BME280;28233;55.748;48.752;2023-04-21T01:27:56;99163.69;;;9.73;56.28
42603;BME280;28233;55.748;48.752;2023-04-21T01:29:58;99166.44;;;9.73;56.20
42603;BME280;28233;55.748;48.752;2023-04-21T01:32:06;99152.09;;;9.68;56.31
42603;BME280;28233;55.748;48.752;2023-04-21T01:34:09;99161.28;;;9.72;56.11
42603;BME280;28233;55.748;48.752;2023-04-21T01:36:12;99166.13;;;9.75;56.13
42603;BME280;28233;55.748;48.752;2023-04-21T01:38:15;99171.63;;;9.75;56.44
42603;BME280;28233;55.748;48.752;2023-04-21T01:40:21;99179.84;;;9.75;56.26
42603;BME280;28233;55.748;48.752;2023-04-21T01:42:25;99180.81;;;9.79;55.55
42603;BME280;28233;55.748;48.752;2023-04-21T01:44:29;99181.63;;;9.80;55.01
42603;BME280;28233;55.748;48.752;2023-04-21T01:46:32;99183.06;;;9.86;55.01
42603;BME280;28233;55.748;48.752;2023-04-21T01:48:35;99180.94;;;9.91;54.95
42603;BME280;28233;55.748;48.752;2023-04-21T01:50:38;99170.28;;;9.90;55.05
42603;BME280;28233;55.748;48.752;2023-04-21T01:52:41;99184.19;;;9.93;55.20
42603;BME280;28233;55.748;48.752;2023-04-21T01:54:43;99177.53;;;9.94;55.66
42603;BME280;28233;55.748;48.752;2023-04-21T01:56:46;99181.25;;;9.99;55.63
42603;BME280;28233;55.748;48.752;2023-04-21T01:58:49;99187.22;;;10.01;55.50
42603;BME280;28233;55.748;48.752;2023-04-21T02:00:51;99183.69;;;10.00;56.10
42603;BME280;28233;55.748;48.752;2023-04-21T02:02:54;99188.03;;;10.01;55.98
42603;BME280;28233;55.748;48.752;2023-04-21T02:04:57;99179.66;;;9.98;55.37
42603;BME280;28233;55.748;48.752;2023-04-21T02:07:00;99181.25;;;9.99;55.19
42603;BME280;28233;55.748;48.752;2023-04-21T02:09:03;99182.41;;;9.98;54.90
42603;BME280;28233;55.748;48.752;2023-04-21T02:11:06;99176.75;;;9.94;54.91
42603;BME280;28233;55.748;48.752;2023-04-21T02:13:08;99185.63;;;10.00;55.23
42603;BME280;28233;55.748;48.752;2023-04-21T02:15:12;99184.50;;;10.01;54.66
42603;BME280;28233;55.748;48.752;2023-04-21T02:17:34;99177.84;;;10.02;55.49
42603;BME280;28233;55.748;48.752;2023-04-21T02:19:37;99176.75;;;10.03;56.07
42603;BME280;28233;55.748;48.752;2023-04-21T02:21:40;99181.44;;;10.02;55.23
42603;BME280;28233;55.748;48.752;2023-04-21T02:23:43;99174.97;;;9.98;53.95
42603;BME280;28233;55.748;48.752;2023-04-21T02:25:45;99168.34;;;9.99;53.63
42603;BME280;28233;55.748;48.752;2023-04-21T02:27:48;99171.72;;;10.05;53.20
42603;BME280;28233;55.748;48.752;2023-04-21T02:29:51;99167.22;;;10.09;52.80
42603;BME280;28233;55.748;48.752;2023-04-21T02:31:53;99172.34;;;10.10;52.34
42603;BME280;28233;55.748;48.752;2023-04-21T02:34:11;99166.88;;;10.10;52.32
42603;BME280;28233;55.748;48.752;2023-04-21T02:36:14;99168.50;;;10.11;52.04
42603;BME280;28233;55.748;48.752;2023-04-21T02:38:16;99166.69;;;10.15;51.22
42603;BME280;28233;55.748;48.752;2023-04-21T02:40:19;99173.63;;;10.22;51.17
42603;BME280;28233;55.748;48.752;2023-04-21T02:42:22;99171.69;;;10.22;50.99
42603;BME280;28233;55.748;48.752;2023-04-21T02:44:25;99168.75;;;10.27;50.68
42603;BME280;28233;55.748;48.752;2023-04-21T02:46:28;99167.66;;;10.28;51.26
42603;BME280;28233;55.748;48.752;2023-04-21T02:48:30;99170.22;;;10.33;51.41
42603;BME280;28233;55.748;48.752;2023-04-21T02:50:33;99182.00;;;10.34;52.19
42603;BME280;28233;55.748;48.752;2023-04-21T02:52:36;99168.63;;;10.32;53.45
42603;BME280;28233;55.748;48.752;2023-04-21T02:54:39;99170.88;;;10.30;55.08
42603;BME280;28233;55.748;48.752;2023-04-21T02:56:42;99169.72;;;10.23;56.17
42603;BME280;28233;55.748;48.752;2023-04-21T02:58:44;99171.53;;;10.19;56.74
42603;BME280;28233;55.748;48.752;2023-04-21T03:00:47;99169.28;;;10.12;57.43
42603;BME280;28233;55.748;48.752;2023-04-21T03:02:49;99168.31;;;10.08;57.74
42603;BME280;28233;55.748;48.752;2023-04-21T03:04:54;99168.19;;;10.04;58.25
42603;BME280;28233;55.748;48.752;2023-04-21T03:06:58;99175.94;;;10.02;58.55
42603;BME280;28233;55.748;48.752;2023-04-21T03:09:00;99170.28;;;9.99;58.56
42603;BME280;28233;55.748;48.752;2023-04-21T03:11:03;99169.63;;;10.02;59.03
42603;BME280;28233;55.748;48.752;2023-04-21T03:13:06;99174.47;;;10.05;58.72
42603;BME280;28233;55.748;48.752;2023-04-21T03:15:09;99160.41;;;10.06;59.08
42603;BME280;28233;55.748;48.752;2023-04-21T03:17:12;99174.41;;;10.22;59.03
42603;BME280;28233;55.748;48.752;2023-04-21T03:19:15;99174.91;;;10.33;59.88
42603;BME280;28233;55.748;48.752;2023-04-21T03:21:18;99161.66;;;10.35;59.58
42603;BME280;28233;55.748;48.752;2023-04-21T03:23:21;99146.47;;;10.38;59.90
42603;BME280;28233;55.748;48.752;2023-04-21T03:25:24;99178.53;;;10.54;60.35
42603;BME280;28233;55.748;48.752;2023-04-21T03:27:29;99174.81;;;10.59;60.03
42603;BME280;28233;55.748;48.752;2023-04-21T03:29:32;99177.03;;;10.66;58.57
42603;BME280;28233;55.748;48.752;2023-04-21T03:31:34;99185.56;;;10.73;57.37
42603;BME280;28233;55.748;48.752;2023-04-21T03:33:37;99176.81;;;10.79;57.96
42603;BME280;28233;55.748;48.752;2023-04-21T03:35:40;99175.81;;;10.84;57.92
42603;BME280;28233;55.748;48.752;2023-04-21T03:37:43;99180.44;;;10.92;57.93
42603;BME280;28233;55.748;48.752;2023-04-21T03:39:45;99171.22;;;10.97;57.87
42603;BME280;28233;55.748;48.752;2023-04-21T03:41:48;99180.53;;;11.05;57.41
42603;BME280;28233;55.748;48.752;2023-04-21T03:43:51;99171.63;;;11.08;56.97
42603;BME280;28233;55.748;48.752;2023-04-21T03:45:53;99174.03;;;11.09;56.06
42603;BME280;28233;55.748;48.752;2023-04-21T03:47:56;99169.41;;;11.01;55.51
42603;BME280;28233;55.748;48.752;2023-04-21T03:49:59;99174.56;;;11.03;55.98
42603;BME280;28233;55.748;48.752;2023-04-21T03:52:02;99176.31;;;11.07;55.85
42603;BME280;28233;55.748;48.752;2023-04-21T03:54:04;99183.56;;;11.12;55.07
42603;BME280;28233;55.748;48.752;2023-04-21T03:56:08;99185.31;;;11.16;55.11
42603;BME280;28233;55.748;48.752;2023-04-21T03:58:10;99181.22;;;11.23;55.14
42603;BME280;28233;55.748;48.752;2023-04-21T04:00:13;99171.63;;;11.29;55.05
42603;BME280;28233;55.748;48.752;2023-04-21T04:02:16;99177.44;;;11.36;54.25
42603;BME280;28233;55.748;48.752;2023-04-21T04:04:19;99174.59;;;11.45;53.10
42603;BME280;28233;55.748;48.752;2023-04-21T04:06:22;99168.44;;;11.48;52.85
42603;BME280;28233;55.748;48.752;2023-04-21T04:08:24;99172.47;;;11.50;52.57
42603;BME280;28233;55.748;48.752;2023-04-21T04:10:27;99165.81;;;11.51;52.92
42603;BME280;28233;55.748;48.752;2023-04-21T04:12:30;99161.91;;;11.52;52.65
42603;BME280;28233;55.748;48.752;2023-04-21T04:14:32;99166.84;;;11.59;52.15
42603;BME280;28233;55.748;48.752;2023-04-21T04:16:35;99167.81;;;11.63;52.01
42603;BME280;28233;55.748;48.752;2023-04-21T04:18:38;99165.78;;;11.72;51.43
42603;BME280;28233;55.748;48.752;2023-04-21T04:20:41;99164.69;;;11.85;51.47
42603;BME280;28233;55.748;48.752;2023-04-21T04:22:43;99161.53;;;11.96;51.20
42603;BME280;28233;55.748;48.752;2023-04-21T04:24:46;99155.34;;;11.99;50.93
42603;BME280;28233;55.748;48.752;2023-04-21T04:26:49;99149.97;;;12.02;50.45
42603;BME280;28233;55.748;48.752;2023-04-21T04:28:51;99143.56;;;12.11;50.72
42603;BME280;28233;55.748;48.752;2023-04-21T04:30:54;99145.06;;;12.20;50.43
42603;BME280;28233;55.748;48.752;2023-04-21T04:32:57;99153.13;;;12.25;49.19
42603;BME280;28233;55.748;48.752;2023-04-21T04:35:00;99152.91;;;12.31;49.32
42603;BME280;28233;55.748;48.752;2023-04-21T04:37:06;99151.97;;;12.39;49.52
42603;BME280;28233;55.748;48.752;2023-04-21T04:39:08;99146.69;;;12.46;49.84
42603;BME280;28233;55.748;48.752;2023-04-21T04:41:11;99153.03;;;12.59;49.12
42603;BME280;28233;55.748;48.752;2023-04-21T04:43:14;99151.06;;;12.72;49.19
42603;BME280;28233;55.748;48.752;2023-04-21T04:45:18;99159.13;;;12.89;48.27
42603;BME280;28233;55.748;48.752;2023-04-21T04:47:22;99144.28;;;13.06;46.85
42603;BME280;28233;55.748;48.752;2023-04-21T04:49:25;99152.28;;;13.23;46.31
42603;BME280;28233;55.748;48.752;2023-04-21T04:51:28;99144.44;;;13.38;44.64
42603;BME280;28233;55.748;48.752;2023-04-21T04:53:31;99143.97;;;13.48;43.82
42603;BME280;28233;55.748;48.752;2023-04-21T04:55:33;99137.47;;;13.56;42.78
42603;BME280;28233;55.748;48.752;2023-04-21T04:57:36;99145.81;;;13.72;40.97
42603;BME280;28233;55.748;48.752;2023-04-21T04:59:38;99139.25;;;13.77;41.45
42603;BME280;28233;55.748;48.752;2023-04-21T05:01:41;99138.66;;;13.83;41.58
42603;BME280;28233;55.748;48.752;2023-04-21T05:03:45;99143.34;;;13.83;40.25
42603;BME280;28233;55.748;48.752;2023-04-21T05:05:48;99137.41;;;13.81;40.03
42603;BME280;28233;55.748;48.752;2023-04-21T05:07:51;99136.16;;;13.78;40.59
42603;BME280;28233;55.748;48.752;2023-04-21T05:09:53;99133.81;;;13.80;40.92
42603;BME280;28233;55.748;48.752;2023-04-21T05:11:56;99129.47;;;13.79;40.71
42603;BME280;28233;55.748;48.752;2023-04-21T05:13:59;99120.97;;;13.72;40.76
42603;BME280;28233;55.748;48.752;2023-04-21T05:16:02;99119.34;;;13.71;41.55
42603;BME280;28233;55.748;48.752;2023-04-21T05:18:05;99119.72;;;13.69;42.34
42603;BME280;28233;55.748;48.752;2023-04-21T05:20:08;99123.53;;;13.65;42.22
42603;BME280;28233;55.748;48.752;2023-04-21T05:22:11;99135.28;;;13.62;43.91
42603;BME280;28233;55.748;48.752;2023-04-21T05:24:14;99127.44;;;13.64;42.65
42603;BME280;28233;55.748;48.752;2023-04-21T05:26:16;99129.84;;;13.65;41.54
42603;BME280;28233;55.748;48.752;2023-04-21T05:28:19;99143.41;;;13.70;41.84
42603;BME280;28233;55.748;48.752;2023-04-21T05:30:22;99134.53;;;13.77;42.07
42603;BME280;28233;55.748;48.752;2023-04-21T05:32:25;99133.78;;;13.92;43.29
42603;BME280;28233;55.748;48.752;2023-04-21T05:34:27;99125.06;;;14.06;43.29
42603;BME280;28233;55.748;48.752;2023-04-21T05:36:30;99129.25;;;14.16;43.37
42603;BME280;28233;55.748;48.752;2023-04-21T05:38:34;99124.72;;;14.24;42.04
42603;BME280;28233;55.748;48.752;2023-04-21T05:40:37;99129.16;;;14.28;41.42
42603;BME280;28233;55.748;48.752;2023-04-21T05:42:39;99123.81;;;14.35;40.20
42603;BME280;28233;55.748;48.752;2023-04-21T05:44:42;99121.13;;;14.39;40.12
42603;BME280;28233;55.748;48.752;2023-04-21T05:46:45;99123.66;;;14.44;39.71
42603;BME280;28233;55.748;48.752;2023-04-21T05:48:47;99122.81;;;14.44;38.98
42603;BME280;28233;55.748;48.752;2023-04-21T05:50:50;99123.72;;;14.48;39.88
42603;BME280;28233;55.748;48.752;2023-04-21T05:52:53;99123.38;;;14.49;40.32
42603;BME280;28233;55.748;48.752;2023-04-21T05:54:57;99119.44;;;14.50;40.40
42603;BME280;28233;55.748;48.752;2023-04-21T05:57:00;99126.34;;;14.56;39.82
42603;BME280;28233;55.748;48.752;2023-04-21T05:59:03;99112.38;;;14.53;39.92
42603;BME280;28233;55.748;48.752;2023-04-21T06:01:08;99124.72;;;14.55;39.49
42603;BME280;28233;55.748;48.752;2023-04-21T06:03:11;99112.38;;;14.53;39.55
42603;BME280;28233;55.748;48.752;2023-04-21T06:05:14;99121.06;;;14.51;39.88
42603;BME280;28233;55.748;48.752;2023-04-21T06:07:16;99120.53;;;14.62;38.89
42603;BME280;28233;55.748;48.752;2023-04-21T06:09:20;99116.13;;;14.76;38.97
42603;BME280;28233;55.748;48.752;2023-04-21T06:11:27;99123.03;;;15.02;38.69
42603;BME280;28233;55.748;48.752;2023-04-21T06:13:31;99110.84;;;15.22;37.81
42603;BME280;28233;55.748;48.752;2023-04-21T06:15:34;99114.06;;;15.44;36.79
42603;BME280;28233;55.748;48.752;2023-04-21T06:17:37;99115.13;;;15.59;36.31
42603;BME280;28233;55.748;48.752;2023-04-21T06:19:40;99106.25;;;15.69;35.32
42603;BME280;28233;55.748;48.752;2023-04-21T06:21:43;99109.97;;;15.77;34.87
42603;BME280;28233;55.748;48.752;2023-04-21T06:23:46;99112.84;;;15.80;33.70
42603;BME280;28233;55.748;48.752;2023-04-21T06:26:02;99104.56;;;15.84;32.71
42603;BME280;28233;55.748;48.752;2023-04-21T06:28:07;99106.13;;;15.81;32.69
42603;BME280;28233;55.748;48.752;2023-04-21T06:30:10;99102.59;;;15.84;31.98
42603;BME280;28233;55.748;48.752;2023-04-21T06:32:13;99097.00;;;15.81;31.66
42603;BME280;28233;55.748;48.752;2023-04-21T06:34:22;99111.44;;;15.90;31.74
42603;BME280;28233;55.748;48.752;2023-04-21T06:36:35;99105.88;;;15.90;30.52
42603;BME280;28233;55.748;48.752;2023-04-21T06:38:38;99110.13;;;15.84;29.23
42603;BME280;28233;55.748;48.752;2023-04-21T06:40:43;99112.00;;;15.80;30.24
42603;BME280;28233;55.748;48.752;2023-04-21T06:42:46;99102.56;;;15.81;30.57
42603;BME280;28233;55.748;48.752;2023-04-21T06:44:49;99104.78;;;15.95;29.99
42603;BME280;28233;55.748;48.752;2023-04-21T06:46:52;99098.28;;;15.87;29.01
42603;BME280;28233;55.748;48.752;2023-04-21T06:48:55;99108.34;;;15.95;29.18
42603;BME280;28233;55.748;48.752;2023-04-21T06:51:00;99102.03;;;15.95;28.45
42603;BME280;28233;55.748;48.752;2023-04-21T06:53:09;99105.59;;;15.95;28.83
42603;BME280;28233;55.748;48.752;2023-04-21T06:55:13;99106.19;;;16.08;28.70
42603;BME280;28233;55.748;48.752;2023-04-21T06:57:16;99105.47;;;16.11;28.67
42603;BME280;28233;55.748;48.752;2023-04-21T06:59:19;99098.44;;;16.17;29.23
42603;BME280;28233;55.748;48.752;2023-04-21T07:01:22;99110.59;;;16.32;29.35
42603;BME280;28233;55.748;48.752;2023-04-21T07:03:25;99111.88;;;16.38;29.41
42603;BME280;28233;55.748;48.752;2023-04-21T07:05:28;99096.03;;;16.39;29.01
42603;BME280;28233;55.748;48.752;2023-04-21T07:07:32;99109.28;;;16.49;29.59
42603;BME280;28233;55.748;48.752;2023-04-21T07:09:36;99096.22;;;16.49;28.54
42603;BME280;28233;55.748;48.752;2023-04-21T07:11:39;99093.91;;;16.55;29.12
42603;BME280;28233;55.748;48.752;2023-04-21T07:13:42;99100.38;;;16.63;29.24
42603;BME280;28233;55.748;48.752;2023-04-21T07:15:44;99101.63;;;16.65;28.85
42603;BME280;28233;55.748;48.752;2023-04-21T07:17:47;99096.66;;;16.78;28.99
42603;BME280;28233;55.748;48.752;2023-04-21T07:19:51;99099.63;;;16.89;29.41
42603;BME280;28233;55.748;48.752;2023-04-21T07:21:53;99102.91;;;16.98;28.61
42603;BME280;28233;55.748;48.752;2023-04-21T07:23:56;99100.66;;;17.07;28.64
42603;BME280;28233;55.748;48.752;2023-04-21T07:26:00;99108.28;;;17.14;28.78
42603;BME280;28233;55.748;48.752;2023-04-21T07:28:03;99109.19;;;17.22;26.83
42603;BME280;28233;55.748;48.752;2023-04-21T07:30:07;99103.84;;;17.09;25.99
42603;BME280;28233;55.748;48.752;2023-04-21T07:32:10;99092.28;;;17.04;27.06
42603;BME280;28233;55.748;48.752;2023-04-21T07:34:13;99093.78;;;16.98;27.70
42603;BME280;28233;55.748;48.752;2023-04-21T07:36:16;99089.22;;;16.82;26.92
42603;BME280;28233;55.748;48.752;2023-04-21T07:38:19;99077.91;;;16.72;26.99
42603;BME280;28233;55.748;48.752;2023-04-21T07:40:22;99089.84;;;16.72;26.55
42603;BME280;28233;55.748;48.752;2023-04-21T07:42:25;99088.53;;;16.66;27.08
42603;BME280;28233;55.748;48.752;2023-04-21T07:44:28;99085.00;;;16.69;26.85
42603;BME280;28233;55.748;48.752;2023-04-21T07:46:31;99085.81;;;16.69;26.61
42603;BME280;28233;55.748;48.752;2023-04-21T07:48:34;99074.69;;;16.66;26.46
42603;BME280;28233;55.748;48.752;2023-04-21T07:50:37;99079.09;;;16.70;26.96
42603;BME280;28233;55.748;48.752;2023-04-21T07:52:41;99078.25;;;16.93;27.26
42603;BME280;28233;55.748;48.752;2023-04-21T07:54:44;99075.19;;;17.02;27.30
42603;BME280;28233;55.748;48.752;2023-04-21T07:56:46;99077.72;;;17.10;27.35
42603;BME280;28233;55.748;48.752;2023-04-21T07:58:49;99080.28;;;17.26;27.03
42603;BME280;28233;55.748;48.752;2023-04-21T08:00:52;99078.44;;;17.38;26.95
42603;BME280;28233;55.748;48.752;2023-04-21T08:02:55;99074.56;;;17.46;27.42
42603;BME280;28233;55.748;48.752;2023-04-21T08:04:58;99070.75;;;17.58;27.78
42603;BME280;28233;55.748;48.752;2023-04-21T08:07:01;99078.72;;;17.59;28.16
42603;BME280;28233;55.748;48.752;2023-04-21T08:09:04;99076.25;;;17.54;28.30
42603;BME280;28233;55.748;48.752;2023-04-21T08:11:06;99078.28;;;17.57;28.65
42603;BME280;28233;55.748;48.752;2023-04-21T08:13:12;99078.31;;;17.61;27.81
42603;BME280;28233;55.748;48.752;2023-04-21T08:15:15;99075.16;;;17.62;27.21
42603;BME280;28233;55.748;48.752;2023-04-21T08:17:18;99071.59;;;17.62;27.38
42603;BME280;28233;55.748;48.752;2023-04-21T08:19:21;99062.03;;;17.59;28.00
42603;BME280;28233;55.748;48.752;2023-04-21T08:21:24;99063.25;;;17.62;29.07
42603;BME280;28233;55.748;48.752;2023-04-21T08:23:27;99065.75;;;17.74;28.89
42603;BME280;28233;55.748;48.752;2023-04-21T08:25:33;99056.03;;;17.91;28.99
42603;BME280;28233;55.748;48.752;2023-04-21T08:27:37;99052.59;;;18.05;28.57
42603;BME280;28233;55.748;48.752;2023-04-21T08:29:41;99052.66;;;18.12;28.25
42603;BME280;28233;55.748;48.752;2023-04-21T08:31:44;99050.72;;;18.20;28.50
42603;BME280;28233;55.748;48.752;2023-04-21T08:33:47;99047.63;;;18.28;28.20
42603;BME280;28233;55.748;48.752;2023-04-21T08:36:04;99047.25;;;18.30;27.64
42603;BME280;28233;55.748;48.752;2023-04-21T08:38:19;99042.78;;;18.18;28.48
42603;BME280;28233;55.748;48.752;2023-04-21T08:40:31;99038.78;;;18.15;27.12
42603;BME280;28233;55.748;48.752;2023-04-21T08:42:34;99040.72;;;18.11;27.39
42603;BME280;28233;55.748;48.752;2023-04-21T08:44:38;99039.47;;;18.02;28.88
42603;BME280;28233;55.748;48.752;2023-04-21T08:46:44;99040.56;;;17.90;28.25
42603;BME280;28233;55.748;48.752;2023-04-21T08:48:47;99045.53;;;17.77;27.61
42603;BME280;28233;55.748;48.752;2023-04-21T08:50:50;99041.13;;;17.72;27.14
42603;BME280;28233;55.748;48.752;2023-04-21T08:52:56;99044.31;;;17.71;27.10
42603;BME280;28233;55.748;48.752;2023-04-21T08:55:00;99040.75;;;17.74;27.63
42603;BME280;28233;55.748;48.752;2023-04-21T08:57:05;99038.50;;;17.83;28.65
42603;BME280;28233;55.748;48.752;2023-04-21T08:59:17;99037.13;;;18.07;28.47
42603;BME280;28233;55.748;48.752;2023-04-21T09:01:20;99037.66;;;18.24;28.19
42603;BME280;28233;55.748;48.752;2023-04-21T09:03:25;99030.63;;;18.41;28.64
42603;BME280;28233;55.748;48.752;2023-04-21T09:05:32;99029.56;;;18.56;26.44
42603;BME280;28233;55.748;48.752;2023-04-21T09:07:37;99027.19;;;18.62;25.98
42603;BME280;28233;55.748;48.752;2023-04-21T09:09:53;99027.28;;;18.72;26.61
42603;BME280;28233;55.748;48.752;2023-04-21T09:11:57;99022.97;;;18.86;27.16
42603;BME280;28233;55.748;48.752;2023-04-21T09:14:03;99019.50;;;19.07;27.15
42603;BME280;28233;55.748;48.752;2023-04-21T09:16:15;99016.00;;;19.24;27.17
42603;BME280;28233;55.748;48.752;2023-04-21T09:18:21;99021.59;;;19.35;26.68
42603;BME280;28233;55.748;48.752;2023-04-21T09:20:25;99017.63;;;19.39;26.93
42603;BME280;28233;55.748;48.752;2023-04-21T09:22:28;99008.09;;;19.37;26.93
42603;BME280;28233;55.748;48.752;2023-04-21T09:24:31;99015.66;;;19.43;26.80
42603;BME280;28233;55.748;48.752;2023-04-21T09:26:34;99008.50;;;19.46;27.21
42603;BME280;28233;55.748;48.752;2023-04-21T09:28:40;99001.34;;;19.45;27.42
42603;BME280;28233;55.748;48.752;2023-04-21T09:30:43;99004.94;;;19.53;27.74
42603;BME280;28233;55.748;48.752;2023-04-21T09:32:46;99014.47;;;19.52;27.12
42603;BME280;28233;55.748;48.752;2023-04-21T09:34:51;99006.53;;;19.57;27.30
42603;BME280;28233;55.748;48.752;2023-04-21T09:37:01;99000.25;;;19.78;26.95
42603;BME280;28233;55.748;48.752;2023-04-21T09:39:05;99004.22;;;19.88;26.24
42603;BME280;28233;55.748;48.752;2023-04-21T09:41:11;99002.63;;;19.83;26.63
42603;BME280;28233;55.748;48.752;2023-04-21T09:43:14;99002.22;;;19.89;25.46
42603;BME280;28233;55.748;48.752;2023-04-21T09:45:16;98993.47;;;19.76;25.99
42603;BME280;28233;55.748;48.752;2023-04-21T09:47:23;98998.25;;;19.72;25.27
42603;BME280;28233;55.748;48.752;2023-04-21T09:49:34;99002.22;;;19.81;25.03
42603;BME280;28233;55.748;48.752;2023-04-21T09:51:38;98999.03;;;19.94;24.75
42603;BME280;28233;55.748;48.752;2023-04-21T09:54:11;99001.38;;;19.67;24.39
42603;BME280;28233;55.748;48.752;2023-04-21T09:56:32;99000.94;;;19.54;25.42
42603;BME280;28233;55.748;48.752;2023-04-21T09:58:43;99002.97;;;19.68;25.97
42603;BME280;28233;55.748;48.752;2023-04-21T10:00:48;99004.94;;;19.56;25.96
42603;BME280;28233;55.748;48.752;2023-04-21T10:02:52;99005.34;;;19.58;26.29
42603;BME280;28233;55.748;48.752;2023-04-21T10:04:57;99001.78;;;19.54;25.64
42603;BME280;28233;55.748;48.752;2023-04-21T10:07:00;98993.72;;;19.28;24.92
42603;BME280;28233;55.748;48.752;2023-04-21T10:09:04;98986.56;;;19.19;25.61
42603;BME280;28233;55.748;48.752;2023-04-21T10:11:08;98972.22;;;19.17;25.50
42603;BME280;28233;55.748;48.752;2023-04-21T10:13:13;98992.88;;;19.13;25.40
42603;BME280;28233;55.748;48.752;2023-04-21T10:15:29;98988.47;;;19.05;25.83
42603;BME280;28233;55.748;48.752;2023-04-21T10:17:34;98993.66;;;19.03;25.32
42603;BME280;28233;55.748;48.752;2023-04-21T10:19:48;98972.88;;;18.82;25.73
42603;BME280;28233;55.748;48.752;2023-04-21T10:21:51;98983.19;;;18.78;25.71
42603;BME280;28233;55.748;48.752;2023-04-21T10:23:56;98984.41;;;18.88;25.58
42603;BME280;28233;55.748;48.752;2023-04-21T10:26:09;98980.97;;;19.16;25.25
42603;BME280;28233;55.748;48.752;2023-04-21T10:28:17;98977.06;;;19.42;25.19
42603;BME280;28233;55.748;48.752;2023-04-21T10:30:21;98979.53;;;19.72;25.26
42603;BME280;28233;55.748;48.752;2023-04-21T10:32:38;98980.75;;;19.93;23.75
42603;BME280;28233;55.748;48.752;2023-04-21T10:34:43;98971.16;;;20.08;25.08
42603;BME280;28233;55.748;48.752;2023-04-21T10:38:55;98977.53;;;20.37;24.89
42603;BME280;28233;55.748;48.752;2023-04-21T10:43:42;98969.91;;;20.66;24.68
42603;BME280;28233;55.748;48.752;2023-04-21T10:45:51;98967.09;;;20.74;25.08
42603;BME280;28233;55.748;48.752;2023-04-21T10:47:54;98969.47;;;20.72;24.22
42603;BME280;28233;55.748;48.752;2023-04-21T10:49:58;98958.69;;;20.81;24.53
42603;BME280;28233;55.748;48.752;2023-04-21T10:52:02;98962.63;;;20.90;24.40
42603;BME280;28233;55.748;48.752;2023-04-21T10:54:05;98958.66;;;20.88;24.16
42603;BME280;28233;55.748;48.752;2023-04-21T10:56:08;98955.47;;;20.86;24.35